M I D A S
Marine Information and Data Acquisition System
Tripno 917 of the Zeeleeuw from 2005-06-15 06:13:24 to 2005-06-15 14:31:44
Back to CruiseResearch ActivitiesStationsMapUnderway DataData graphs

EquipmentUnitsComment
TimeDGPSUTC
LatitudeDGPSDM.mWGS84
LongitudeDGPSDM.mWGS84
HeadingGyrodeg 
SOGDGPSknotsSpeed over ground
COGDGPSdegCourse over ground
DepthEcho soundermeters200 kHz
Missing or incorrect values are displayed as -999
Navigation data collected by the RV Zeeleeuw from 2005-06-15 06:12:57 to 2005-06-15 14:43:59
Time Latitude Longitude Heading SOG COG Depth
2005-06-15 06:14:02 51°13.602 2°56.085 109.5 2.3 286 -999
2005-06-15 06:15:02 51°13.604 2°56.07 131.1 1.2 120 4.7
2005-06-15 06:16:02 51°13.574 2°56.121 138.1 3.2 134 10.7
2005-06-15 06:17:01 51°13.547 2°56.193 102.3 3.3 100 11
2005-06-15 06:18:01 51°13.555 2°56.239 53 0.4 220 10.7
2005-06-15 06:19:02 51°13.549 2°56.227 33.7 1 30 4.7
2005-06-15 06:20:02 51°13.541 2°56.229 12.5 0.4 170 -999
2005-06-15 06:21:02 51°13.533 2°56.237 344 1.2 153 4.7
2005-06-15 06:22:01 51°13.556 2°56.16 284 4.3 283 10.8
2005-06-15 06:23:01 51°13.6 2°56.009 309 6.7 304 11.3
2005-06-15 06:24:02 51°13.671 2°55.86 312.9 7.1 309 11.2
2005-06-15 06:25:02 51°13.755 2°55.718 321.2 7.3 315 11.9
2005-06-15 06:26:02 51°13.877 2°55.605 341.5 9 335 11.8
2005-06-15 06:27:02 51°14.026 2°55.514 341.7 9.7 335 12.8
2005-06-15 06:28:02 51°14.158 2°55.397 329.8 8.6 325 13.1
2005-06-15 06:29:02 51°14.272 2°55.235 317.7 9.5 315 12.7
2005-06-15 06:30:02 51°14.394 2°55.024 317.9 11.5 313 12.5
2005-06-15 06:31:02 51°14.582 2°54.851 332.4 13.5 330 11.8
2005-06-15 06:32:02 51°14.778 2°54.67 329.8 13.7 330 11.4
2005-06-15 06:33:02 51°14.973 2°54.485 327.8 13.6 328 10.9
2005-06-15 06:34:02 51°15.163 2°54.288 328.2 13.7 328 10.9
2005-06-15 06:35:02 51°15.359 2°54.094 328.7 13.9 328 11.5
2005-06-15 06:36:02 51°15.563 2°53.916 333.8 14 334 12.3
2005-06-15 06:37:02 51°15.771 2°53.755 333.5 13.8 334 13
2005-06-15 06:38:02 51°15.978 2°53.599 334.1 13.8 335 13.3
2005-06-15 06:39:02 51°16.185 2°53.443 334 13.8 335 13.7
2005-06-15 06:40:02 51°16.392 2°53.29 333.9 13.7 335 14
2005-06-15 06:41:02 51°16.596 2°53.127 331.6 13.7 333 13.8
2005-06-15 06:42:02 51°16.799 2°52.962 332.3 13.7 333 12.1
2005-06-15 06:43:02 51°17 2°52.791 333 13.9 332 11.6
2005-06-15 06:44:02 51°17.205 2°52.626 337.4 13.9 336 11.6
2005-06-15 06:45:02 51°17.431 2°52.535 356.1 14.1 354 12.3
2005-06-15 06:46:02 51°17.665 2°52.52 1.4 14.2 359 12.2
2005-06-15 06:47:02 51°17.902 2°52.522 8.6 14.2 9 12.5
2005-06-15 06:48:02 51°18.128 2°52.634 25.9 14.3 23 12.8
2005-06-15 06:49:02 51°18.32 2°52.854 44.8 14.2 40 13
2005-06-15 06:50:02 51°18.487 2°53.126 51.3 14.2 46 13.2
2005-06-15 06:51:02 51°18.631 2°53.428 62.9 14.3 59 13.4
2005-06-15 06:52:02 51°18.728 2°53.773 74.2 14.2 69 13.3
2005-06-15 06:53:03 51°18.815 2°54.128 74.9 14.2 70 13.3
2005-06-15 06:54:02 51°18.896 2°54.479 75.5 14.2 69 13.3
2005-06-15 06:55:02 51°18.979 2°54.833 75.7 14.4 70 13.4
2005-06-15 06:56:01 51°19.064 2°55.18 74.8 14.3 69 13.2
2005-06-15 06:57:02 51°19.153 2°55.54 75.4 14.2 69 13
2005-06-15 06:58:02 51°19.243 2°55.899 74.7 14.5 68 12.9
2005-06-15 06:59:02 51°19.334 2°56.253 74 14.4 67 12.7
2005-06-15 07:00:02 51°19.423 2°56.605 75.6 14.4 69 12.6
2005-06-15 07:01:02 51°19.512 2°56.961 73.7 14.4 68 12.5
2005-06-15 07:02:02 51°19.601 2°57.314 75.2 14.3 68 12.4
2005-06-15 07:03:02 51°19.691 2°57.665 73.9 14.2 68 12.3
2005-06-15 07:04:02 51°19.781 2°58.016 73.6 14.3 67 12.2
2005-06-15 07:05:02 51°19.868 2°58.369 77.5 14.3 72 12.1
2005-06-15 07:06:02 51°19.94 2°58.731 78.6 14.3 72 11.9
2005-06-15 07:07:02 51°20.013 2°59.092 79 14.3 73 11.8
2005-06-15 07:08:02 51°20.09 2°59.454 76.7 14.4 70 11.7
2005-06-15 07:09:02 51°20.165 2°59.817 78.7 14.3 71 11.6
2005-06-15 07:10:01 51°20.239 3°0.168 78.8 14.3 72 11.6
2005-06-15 07:11:02 51°20.315 3°0.535 77.6 14.2 71 11.5
2005-06-15 07:12:02 51°20.388 3°0.891 78.2 14 72 11.4
2005-06-15 07:13:02 51°20.459 3°1.244 77.8 -999 -999 11.3
2005-06-15 07:14:02 51°20.532 3°1.595 79.2 13.9 73 11.3
2005-06-15 07:15:02 51°20.602 3°1.946 78.1 14 72 11.3
2005-06-15 07:16:02 51°20.674 3°2.3 76.2 14.1 70 11.4
2005-06-15 07:17:02 51°20.758 3°2.654 75.2 14.1 69 11.4
2005-06-15 07:18:03 51°20.842 3°3.01 75.5 14.2 70 11.4
2005-06-15 07:19:02 51°20.927 3°3.356 73.5 14.3 68 11.5
2005-06-15 07:20:02 51°21.012 3°3.711 75.2 13.9 68 11.6
2005-06-15 07:21:02 51°21.08 3°3.918 52.3 -999 -999 11.9
2005-06-15 07:22:01 51°21.129 3°3.977 30.9 3.4 32 12.1
2005-06-15 07:23:02 51°21.191 3°4.039 35.1 5 34 12.3
2005-06-15 07:24:02 51°21.255 3°4.133 53.3 5.4 50 12.4
2005-06-15 07:25:01 51°21.305 3°4.249 66.7 5.4 58 12.5
2005-06-15 07:26:01 51°21.339 3°4.378 82.3 5.2 71 12.4
2005-06-15 07:27:01 51°21.362 3°4.504 85.6 4.6 74 12.5
2005-06-15 07:28:02 51°21.379 3°4.606 91.4 3.6 76 12.5
2005-06-15 07:29:02 51°21.393 3°4.693 92.4 3.3 77 12.5
2005-06-15 07:30:02 51°21.408 3°4.776 89.4 3.2 69 12.5
2005-06-15 07:31:02 51°21.422 3°4.854 90.3 3.1 70 12.5
2005-06-15 07:32:02 51°21.436 3°4.932 92.1 3.1 74 12.5
2005-06-15 07:33:01 51°21.448 3°5.01 93.1 3.1 80 12.5
2005-06-15 07:34:02 51°21.46 3°5.093 93.3 3.1 76 12.6
2005-06-15 07:35:02 51°21.471 3°5.173 93.9 3.1 82 12.5
2005-06-15 07:36:02 51°21.482 3°5.251 93.1 3 77 12.6
2005-06-15 07:37:01 51°21.493 3°5.329 93.9 3 77 12.5
2005-06-15 07:38:02 51°21.504 3°5.409 93.4 3 79 12.5
2005-06-15 07:39:03 51°21.516 3°5.487 90 3 73 12.4
2005-06-15 07:40:02 51°21.531 3°5.563 85.9 3 72 12.3
2005-06-15 07:41:02 51°21.548 3°5.639 83.6 3 71 12.4
2005-06-15 07:42:02 51°21.565 3°5.716 83.4 3.1 73 12.4
2005-06-15 07:43:02 51°21.582 3°5.794 83.3 3.1 70 12.5
2005-06-15 07:44:02 51°21.598 3°5.873 82.2 3.1 75 12.5
2005-06-15 07:45:01 51°21.616 3°5.95 78.8 3.2 67 12.5
2005-06-15 07:46:02 51°21.636 3°6.03 77.7 3.2 73 12.6
2005-06-15 07:47:02 51°21.655 3°6.109 77.3 3.2 71 12.6
2005-06-15 07:48:02 51°21.675 3°6.189 77.1 3.2 68 12.6
2005-06-15 07:49:02 51°21.694 3°6.266 78.1 3.2 70 12.7
2005-06-15 07:50:02 51°21.713 3°6.342 78.5 3.1 67 12.8
2005-06-15 07:51:02 51°21.733 3°6.418 77.7 3 66 12.7
2005-06-15 07:52:02 51°21.752 3°6.491 77.6 3 68 12.9
2005-06-15 07:53:02 51°21.771 3°6.562 78.1 2.9 67 12.9
2005-06-15 07:54:02 51°21.789 3°6.633 77.8 2.8 70 13
2005-06-15 07:55:02 51°21.807 3°6.704 77.8 3 66 12.9
2005-06-15 07:56:02 51°21.824 3°6.788 82.9 3.5 73 12.9
2005-06-15 07:57:02 51°21.838 3°6.882 87 3.7 77 13
2005-06-15 07:58:02 51°21.848 3°6.979 90.7 3.8 83 13
2005-06-15 07:59:02 51°21.859 3°7.08 90.7 3.8 83 13
2005-06-15 08:00:01 51°21.882 3°7.253 79.8 8 72 13
2005-06-15 08:01:02 51°21.934 3°7.415 55.1 5.4 50 13.2
2005-06-15 08:02:02 51°21.989 3°7.487 32.2 3.7 34 13.4
2005-06-15 08:03:02 51°22.037 3°7.529 21 3 27 13.5
2005-06-15 08:04:02 51°22.078 3°7.561 18.6 2.6 23 13.6
2005-06-15 08:05:02 51°22.14 3°7.68 75.5 8 74 13.7
2005-06-15 08:06:02 51°22.072 3°7.843 163.1 7.9 160 13.4
2005-06-15 08:07:02 51°21.906 3°7.914 170.7 10.9 167 12.8
2005-06-15 08:08:02 51°21.72 3°7.915 183.7 11.4 181 12.2
2005-06-15 08:09:02 51°21.532 3°7.902 182.2 11.6 182 11.3
2005-06-15 08:10:02 51°21.425 3°7.91 194 4.6 191 10.9
2005-06-15 08:11:02 51°21.367 3°7.86 215.9 3.7 212 10.8
2005-06-15 08:12:02 51°21.32 3°7.798 224 3.7 223 10.4
2005-06-15 08:13:02 51°21.278 3°7.724 231.1 3.8 230 10.3
2005-06-15 08:14:02 51°21.242 3°7.642 236.6 3.8 235 9.9
2005-06-15 08:15:02 51°21.212 3°7.559 242 3.4 242 10
2005-06-15 08:16:02 51°21.193 3°7.478 249.4 3.2 253 10
2005-06-15 08:17:02 51°21.178 3°7.398 251.2 3.1 256 10
2005-06-15 08:18:02 51°21.165 3°7.317 251.4 3.1 256 10
2005-06-15 08:19:02 51°21.152 3°7.238 251.1 3.1 256 9.8
2005-06-15 08:20:02 51°21.138 3°7.16 250.5 3.1 256 9.9
2005-06-15 08:21:02 51°21.124 3°7.081 249.6 3.1 250 9.9
2005-06-15 08:22:02 51°21.108 3°7.002 250.4 3.1 251 9.8
2005-06-15 08:23:02 51°21.093 3°6.924 250.1 3 253 9.7
2005-06-15 08:24:02 51°21.081 3°6.849 252.4 2.9 252 9.8
2005-06-15 08:25:02 51°21.069 3°6.774 251.9 2.8 252 9.7
2005-06-15 08:26:02 51°21.058 3°6.701 251.1 2.8 257 9.7
2005-06-15 08:27:02 51°21.046 3°6.629 251.1 2.9 260 9.6
2005-06-15 08:28:02 51°21.033 3°6.556 252.3 2.9 258 9.7
2005-06-15 08:29:02 51°21.023 3°6.484 252.8 2.8 257 9.7
2005-06-15 08:30:02 51°21.013 3°6.412 251.1 2.8 259 9.7
2005-06-15 08:31:02 51°21.002 3°6.342 250 2.7 256 9.7
2005-06-15 08:32:02 51°20.99 3°6.273 251.4 2.7 256 9.6
2005-06-15 08:33:02 51°20.98 3°6.202 253.1 2.7 257 9.7
2005-06-15 08:34:02 51°20.971 3°6.132 252.8 2.6 258 9.7
2005-06-15 08:35:02 51°20.963 3°6.064 250.9 2.6 256 9.7
2005-06-15 08:36:02 51°20.951 3°5.998 250.2 2.6 250 9.7
2005-06-15 08:37:02 51°20.941 3°5.928 253.7 2.7 255 9.7
2005-06-15 08:38:02 51°20.932 3°5.859 250.9 2.7 252 9.7
2005-06-15 08:39:02 51°20.918 3°5.781 252.7 3.4 255 9.7
2005-06-15 08:40:03 51°20.911 3°5.684 267.3 3.7 271 9.7
2005-06-15 08:41:03 51°20.925 3°5.583 287.5 4 288 9.8
2005-06-15 08:42:02 51°20.962 3°5.492 309.4 4.3 313 10
2005-06-15 08:43:02 51°21.023 3°5.428 335.5 4.5 335 10.3
2005-06-15 08:44:02 51°21.087 3°5.397 351.7 3.7 350 10.5
2005-06-15 08:45:02 51°21.14 3°5.398 7.9 2.9 4 10.7
2005-06-15 08:46:02 51°21.182 3°5.409 18.8 2.4 12 10.9
2005-06-15 08:47:02 51°21.216 3°5.424 27.6 2 14 10.9
2005-06-15 08:48:03 51°21.25 3°5.446 33.5 2.4 25 11
2005-06-15 08:49:02 51°21.289 3°5.475 35.1 2.5 26 11.1
2005-06-15 08:50:02 51°21.324 3°5.504 35.7 2.2 28 11.1
2005-06-15 08:51:02 51°21.356 3°5.525 28.1 2 15 11.2
2005-06-15 08:52:02 51°21.386 3°5.536 16.5 1.9 8 11.3
2005-06-15 08:53:02 51°21.416 3°5.538 2.9 1.7 356 11.4
2005-06-15 08:54:02 51°21.444 3°5.531 349.6 1.7 345 11.6
2005-06-15 08:55:02 51°21.468 3°5.515 335.5 1.5 331 11.5
2005-06-15 08:56:02 51°21.49 3°5.492 320.6 1.5 323 11.7
2005-06-15 08:57:02 51°21.509 3°5.464 306.4 1.6 316 11.8
2005-06-15 08:58:02 51°21.523 3°5.432 293.3 1.5 308 11.7
2005-06-15 08:59:02 51°21.535 3°5.399 285.8 1.5 300 11.8
2005-06-15 09:00:02 51°21.545 3°5.365 278.8 1.4 289 11.9
2005-06-15 09:01:02 51°21.552 3°5.332 272.3 1.3 284 11.9
2005-06-15 09:02:02 51°21.558 3°5.299 266.7 1.3 277 12
2005-06-15 09:03:02 51°21.563 3°5.272 262.4 1 283 12
2005-06-15 09:04:02 51°21.568 3°5.248 258 1 290 12
2005-06-15 09:05:02 51°21.584 3°5.178 304.5 5 307 12
2005-06-15 09:06:03 51°21.679 3°5.192 46 6.6 38 12.2
2005-06-15 09:07:02 51°21.753 3°5.438 80.5 11.9 69 12.1
2005-06-15 09:08:02 51°21.787 3°5.767 82.9 12.9 78 12.1
2005-06-15 09:09:02 51°21.834 3°6.106 83.3 13.2 78 12.1
2005-06-15 09:10:03 51°21.878 3°6.456 83.1 13.2 78 12.2
2005-06-15 09:11:02 51°21.922 3°6.797 85.1 13.2 81 12.4
2005-06-15 09:12:02 51°21.961 3°7.143 84.3 13.2 79 12.4
2005-06-15 09:13:02 51°21.999 3°7.484 84.5 13.1 80 12.5
2005-06-15 09:14:02 51°22.039 3°7.83 84.2 13 80 12.5
2005-06-15 09:15:02 51°22.078 3°8.172 83.8 13 79 12.6
2005-06-15 09:16:02 51°22.116 3°8.514 84.6 13 80 12.7
2005-06-15 09:17:02 51°22.155 3°8.852 83.7 13.1 79 12.9
2005-06-15 09:18:02 51°22.196 3°9.197 84.2 13.1 79 13.2
2005-06-15 09:19:02 51°22.234 3°9.534 84.4 12.9 79 13.7
2005-06-15 09:20:02 51°22.272 3°9.872 85.2 12.7 80 14.2
2005-06-15 09:21:02 51°22.313 3°10.204 83.5 12.6 78 14.8
2005-06-15 09:22:02 51°22.357 3°10.526 83.9 12.5 77 18.9
2005-06-15 09:23:02 51°22.394 3°10.856 88.3 12.6 83 16.8
2005-06-15 09:24:02 51°22.426 3°11.193 84.4 12.8 80 16.1
2005-06-15 09:25:02 51°22.465 3°11.527 83.6 12.8 79 16
2005-06-15 09:26:02 51°22.503 3°11.857 84.2 12.7 79 15.3
2005-06-15 09:27:03 51°22.542 3°12.196 84 12.7 79 14.8
2005-06-15 09:28:02 51°22.58 3°12.527 84.1 12.8 80 14.2
2005-06-15 09:29:02 51°22.62 3°12.86 83.7 12.7 80 13.7
2005-06-15 09:30:02 51°22.658 3°13.192 83.9 12.8 79 12.7
2005-06-15 09:31:03 51°22.703 3°13.521 81.1 12.5 77 12
2005-06-15 09:32:02 51°22.763 3°13.836 77.7 12.5 72 11.3
2005-06-15 09:33:02 51°22.828 3°14.151 77 12.4 71 10.8
2005-06-15 09:34:02 51°22.894 3°14.468 78.4 12.4 75 10.2
2005-06-15 09:35:03 51°22.94 3°14.793 82.7 12.4 77 9.8
2005-06-15 09:36:02 51°22.984 3°15.112 82.5 12.4 77 9.4
2005-06-15 09:37:02 51°23.029 3°15.428 82.9 12.1 78 8.8
2005-06-15 09:38:02 51°23.072 3°15.741 82.1 12.2 77 8.9
2005-06-15 09:39:03 51°23.13 3°16.058 79.9 12.2 74 8.8
2005-06-15 09:40:02 51°23.186 3°16.366 79.9 12.2 75 8.7
2005-06-15 09:41:02 51°23.245 3°16.677 79.1 12.3 74 8.9
2005-06-15 09:42:02 51°23.301 3°16.988 78.3 12.2 73 9.2
2005-06-15 09:43:02 51°23.359 3°17.3 79.7 12.3 74 9.9
2005-06-15 09:44:02 51°23.423 3°17.606 75.6 12.1 68 10.4
2005-06-15 09:45:02 51°23.496 3°17.912 76.5 12.2 71 10.7
2005-06-15 09:46:02 51°23.552 3°18.218 79.9 12 73 10.9
2005-06-15 09:47:02 51°23.593 3°18.528 82.9 11.9 79 11.3
2005-06-15 09:48:02 51°23.634 3°18.842 85.1 12 79 11.6
2005-06-15 09:49:03 51°23.666 3°19.124 90 9.5 81 12.1
2005-06-15 09:50:02 51°23.679 3°19.253 78.5 3.9 68 12.2
2005-06-15 09:51:02 51°23.7 3°19.341 87.6 3.3 78 12.4
2005-06-15 09:52:02 51°23.71 3°19.424 91.2 3 82 12.6
2005-06-15 09:53:02 51°23.712 3°19.497 100 2.6 94 12.6
2005-06-15 09:54:02 51°23.709 3°19.566 99.2 2.6 96 12.6
2005-06-15 09:55:02 51°23.711 3°19.635 96.5 2.5 85 12.6
2005-06-15 09:56:02 51°23.714 3°19.702 94.1 2.5 86 12.6
2005-06-15 09:57:02 51°23.718 3°19.77 97 2.5 87 12.6
2005-06-15 09:58:02 51°23.717 3°19.836 99.7 2.4 92 12.6
2005-06-15 09:59:01 51°23.715 3°19.9 100.5 2.5 93 12.6
2005-06-15 10:00:02 51°23.712 3°19.967 99 2.5 93 12.6
2005-06-15 10:01:02 51°23.713 3°20.034 96.2 2.5 87 12.6
2005-06-15 10:02:02 51°23.712 3°20.1 99.5 2.5 94 12.7
2005-06-15 10:03:02 51°23.709 3°20.167 99.7 2.5 95 12.6
2005-06-15 10:04:02 51°23.705 3°20.233 99.8 2.5 95 12.7
2005-06-15 10:05:02 51°23.702 3°20.301 99.6 2.5 93 12.7
2005-06-15 10:06:02 51°23.7 3°20.368 99.2 2.5 93 12.7
2005-06-15 10:07:02 51°23.697 3°20.435 99.2 2.5 92 12.7
2005-06-15 10:08:02 51°23.695 3°20.503 96.5 2.6 89 12.8
2005-06-15 10:09:02 51°23.695 3°20.571 96.4 2.6 90 12.8
2005-06-15 10:10:02 51°23.694 3°20.638 97.2 2.5 92 12.8
2005-06-15 10:11:02 51°23.693 3°20.705 97.9 2.5 93 12.8
2005-06-15 10:12:02 51°23.688 3°20.771 100.7 2.5 95 12.8
2005-06-15 10:13:02 51°23.683 3°20.836 101.8 2.5 99 12.9
2005-06-15 10:14:02 51°23.676 3°20.902 102.7 2.5 100 12.8
2005-06-15 10:15:02 51°23.669 3°20.967 101.5 2.5 99 12.8
2005-06-15 10:16:02 51°23.663 3°21.032 101.5 2.4 99 12.8
2005-06-15 10:17:02 51°23.658 3°21.097 100.8 2.4 97 12.8
2005-06-15 10:18:02 51°23.651 3°21.161 102.1 2.5 100 12.8
2005-06-15 10:19:02 51°23.644 3°21.226 102.3 2.5 100 12.8
2005-06-15 10:20:02 51°23.637 3°21.291 102.4 2.5 100 12.8
2005-06-15 10:21:02 51°23.633 3°21.355 97.9 2.5 94 12.9
2005-06-15 10:22:02 51°23.631 3°21.42 96.5 2.4 92 12.8
2005-06-15 10:23:02 51°23.629 3°21.485 97.5 2.5 95 12.9
2005-06-15 10:24:02 51°23.622 3°21.55 103.1 2.5 103 12.9
2005-06-15 10:25:02 51°23.606 3°21.611 109.9 2.5 115 12.8
2005-06-15 10:26:02 51°23.582 3°21.665 117.9 2.5 129 12.6
2005-06-15 10:27:02 51°23.556 3°21.697 127.5 1.6 156 12.4
2005-06-15 10:28:02 51°23.535 3°21.702 131.3 1.1 184 12.3
2005-06-15 10:29:02 51°23.512 3°21.704 137.3 2.7 168 12
2005-06-15 10:30:02 51°23.448 3°21.636 228.3 5.6 230 11.3
2005-06-15 10:31:03 51°23.422 3°21.468 264.5 6.2 265 11
2005-06-15 10:32:02 51°23.422 3°21.324 276.5 5.1 272 10.9
2005-06-15 10:33:02 51°23.425 3°21.195 276.8 4.8 271 11.1
2005-06-15 10:34:02 51°23.429 3°21.081 277.6 4.1 274 11.1
2005-06-15 10:35:02 51°23.433 3°20.975 278.8 3.9 274 11.2
2005-06-15 10:36:02 51°23.439 3°20.872 281.7 3.8 276 11.2
2005-06-15 10:37:02 51°23.446 3°20.772 283.5 3.8 276 11.2
2005-06-15 10:38:03 51°23.456 3°20.673 286.2 3.8 279 11.3
2005-06-15 10:39:03 51°23.467 3°20.576 287.9 3.7 282 11.2
2005-06-15 10:40:01 51°23.478 3°20.482 289.2 3.7 281 11.2
2005-06-15 10:41:02 51°23.492 3°20.383 291.3 3.7 283 11.2
2005-06-15 10:42:02 51°23.507 3°20.287 292.9 3.7 284 11.2
2005-06-15 10:43:02 51°23.523 3°20.191 294.6 3.7 285 11.2
2005-06-15 10:44:02 51°23.54 3°20.094 294 3.8 285 11.2
2005-06-15 10:45:02 51°23.554 3°19.997 290.8 3.8 283 11.2
2005-06-15 10:46:02 51°23.568 3°19.9 289.3 3.8 283 11.2
2005-06-15 10:47:02 51°23.582 3°19.803 287.6 3.7 283 11.2
2005-06-15 10:48:02 51°23.594 3°19.706 287 3.7 279 11.2
2005-06-15 10:49:03 51°23.607 3°19.609 286.2 3.7 281 11.3
2005-06-15 10:50:03 51°23.619 3°19.514 287 3.7 282 11.3
2005-06-15 10:51:02 51°23.634 3°19.421 288 3.6 283 11.3
2005-06-15 10:52:02 51°23.648 3°19.329 286.7 3.5 285 11.4
2005-06-15 10:53:02 51°23.661 3°19.237 282.7 3.5 282 11.5
2005-06-15 10:54:02 51°23.672 3°19.146 278 3.5 279 11.6
2005-06-15 10:55:02 51°23.68 3°19.055 273.6 3.5 278 11.6
2005-06-15 10:56:02 51°23.687 3°18.965 270 3.4 274 11.6
2005-06-15 10:57:02 51°23.691 3°18.875 266.7 3.4 275 11.6
2005-06-15 10:58:02 51°23.696 3°18.784 264.1 3.4 274 11.5
2005-06-15 10:59:02 51°23.699 3°18.694 262.7 3.4 273 11.5
2005-06-15 11:00:02 51°23.703 3°18.6 264.7 3.6 272 11.4
2005-06-15 11:01:03 51°23.709 3°18.491 280.8 4.5 278 11.4
2005-06-15 11:02:03 51°23.73 3°18.36 290.7 5.3 286 11.5
2005-06-15 11:03:02 51°23.761 3°18.221 305.9 5.6 294 11.9
2005-06-15 11:04:03 51°23.805 3°18.082 304.1 5.5 294 12.2
2005-06-15 11:05:02 51°23.893 3°17.914 338.9 9.2 325 12.4
2005-06-15 11:06:02 51°23.987 3°17.858 17.7 4.5 349 13
2005-06-15 11:07:02 51°24.041 3°17.851 43.4 2.6 -999 13.4
2005-06-15 11:08:02 51°24.073 3°17.853 61.7 1.6 2 13.6
2005-06-15 11:09:02 51°24.097 3°17.852 65.1 1.5 356 13.8
2005-06-15 11:10:02 51°24.127 3°17.843 38.5 2.1 343 14.1
2005-06-15 11:11:02 51°24.164 3°17.812 7.1 2.7 325 14.5
2005-06-15 11:12:02 51°24.2 3°17.753 334.4 3.1 308 15
2005-06-15 11:13:03 51°24.228 3°17.684 322.1 3 302 15.4
2005-06-15 11:14:03 51°24.252 3°17.616 315.5 2.9 298 15.7
2005-06-15 11:15:02 51°24.273 3°17.55 309.8 2.8 297 16.1
2005-06-15 11:16:02 51°24.294 3°17.483 305.1 2.8 296 16.4
2005-06-15 11:17:02 51°24.313 3°17.417 300.8 2.7 295 16.8
2005-06-15 11:18:03 51°24.331 3°17.351 296.9 2.6 293 17.1
2005-06-15 11:19:02 51°24.347 3°17.29 294 2.5 293 17.3
2005-06-15 11:20:02 51°24.362 3°17.232 291.1 2.3 292 17.4
2005-06-15 11:21:03 51°24.375 3°17.175 290 2.2 290 17.4
2005-06-15 11:22:03 51°24.389 3°17.121 289.8 2.1 292 17.5
2005-06-15 11:23:02 51°24.403 3°17.07 290.3 2.1 292 17.6
2005-06-15 11:24:01 51°24.42 3°17.002 296 4.6 293 17.6
2005-06-15 11:25:02 51°24.493 3°16.842 326.5 8.9 316 17.8
2005-06-15 11:26:02 51°24.616 3°16.654 320.4 10.8 312 17.8
2005-06-15 11:27:02 51°24.753 3°16.402 317.2 13.4 310 16.7
2005-06-15 11:28:02 51°24.875 3°16.14 312.8 11.9 306 15.3
2005-06-15 11:29:02 51°24.986 3°15.825 301.4 14.5 296 14.4
2005-06-15 11:30:02 51°25.066 3°15.458 290.5 14.6 286 14
2005-06-15 11:31:02 51°25.127 3°15.082 288.1 14.6 283 13.1
2005-06-15 11:32:02 51°25.181 3°14.706 286.6 14.6 283 12.3
2005-06-15 11:33:03 51°25.235 3°14.322 286.9 14.5 283 11.4
2005-06-15 11:34:03 51°25.288 3°13.947 287.4 14.4 283 10.5
2005-06-15 11:35:02 51°25.343 3°13.578 288.6 14.3 284 9.8
2005-06-15 11:36:02 51°25.4 3°13.209 288.1 14.2 284 9.5
2005-06-15 11:37:02 51°25.456 3°12.843 288 14.1 283 9.1
2005-06-15 11:38:02 51°25.512 3°12.48 287 13.9 283 8.7
2005-06-15 11:39:02 51°25.567 3°12.126 288.3 13.8 284 8.4
2005-06-15 11:40:02 51°25.619 3°11.77 287.3 13.5 284 7.8
2005-06-15 11:41:02 51°25.669 3°11.425 284.8 13.4 281 5.5
2005-06-15 11:42:03 51°25.745 3°11.093 307 13 304 6.9
2005-06-15 11:43:03 51°25.872 3°10.818 305.1 12.9 304 7.1
2005-06-15 11:44:02 51°26 3°10.542 320.5 13.1 315 7.3
2005-06-15 11:45:02 51°26.142 3°10.274 311.6 13.3 307 7.8
2005-06-15 11:46:02 51°26.287 3°10.005 315.7 13.5 311 8.3
2005-06-15 11:47:03 51°26.432 3°9.725 314.5 13.6 310 9
2005-06-15 11:48:02 51°26.569 3°9.466 315.5 11.7 311 9.9
2005-06-15 11:49:02 51°26.677 3°9.449 29.4 5.7 23 9.9
2005-06-15 11:50:02 51°26.751 3°9.528 37.6 5.1 30 10
2005-06-15 11:51:03 51°26.826 3°9.563 16.1 4.4 11 10.1
2005-06-15 11:52:02 51°26.887 3°9.599 37.2 3.7 30 10
2005-06-15 11:53:02 51°26.93 3°9.665 52.7 3.6 45 10
2005-06-15 11:54:03 51°26.973 3°9.73 48.5 3.5 45 10.1
2005-06-15 11:55:02 51°27.013 3°9.79 48.7 3.3 44 10.1
2005-06-15 11:56:02 51°27.052 3°9.847 49.3 3.2 44 10.1
2005-06-15 11:57:02 51°27.086 3°9.909 57.4 3.2 52 10.2
2005-06-15 11:58:03 51°27.117 3°9.977 61.6 3.1 54 10.1
2005-06-15 11:59:03 51°27.145 3°10.045 64 3.1 59 10.1
2005-06-15 12:00:02 51°27.172 3°10.111 60.5 3.1 56 10.2
2005-06-15 12:01:02 51°27.203 3°10.175 57.1 3.1 54 10.2
2005-06-15 12:02:03 51°27.237 3°10.239 55.2 3.1 49 10.3
2005-06-15 12:03:02 51°27.27 3°10.298 53.5 3.1 49 10.2
2005-06-15 12:04:02 51°27.304 3°10.359 54.2 3.1 48 10.2
2005-06-15 12:05:03 51°27.338 3°10.421 53.7 3 48 10.1
2005-06-15 12:06:02 51°27.371 3°10.48 55.2 3.1 47 10.1
2005-06-15 12:07:03 51°27.405 3°10.543 56 3 53 10
2005-06-15 12:08:02 51°27.436 3°10.603 56.3 3.1 52 9.9
2005-06-15 12:09:03 51°27.468 3°10.664 57.2 3 49 10
2005-06-15 12:10:02 51°27.499 3°10.727 56.2 3.1 53 10
2005-06-15 12:11:02 51°27.533 3°10.788 54.5 3.1 47 10.1
2005-06-15 12:12:02 51°27.566 3°10.85 54.4 3.1 52 10
2005-06-15 12:13:02 51°27.601 3°10.912 53.4 3.1 51 10.1
2005-06-15 12:14:03 51°27.636 3°10.974 54.5 3 50 10
2005-06-15 12:15:03 51°27.67 3°11.037 55 3.1 47 9.8
2005-06-15 12:16:02 51°27.702 3°11.098 55.1 3 47 9.7
2005-06-15 12:17:03 51°27.734 3°11.16 55.3 3 52 9.6
2005-06-15 12:18:02 51°27.765 3°11.231 63.1 3.3 57 9.6
2005-06-15 12:19:02 51°27.788 3°11.316 73.3 3.5 67 9.4
2005-06-15 12:20:03 51°27.803 3°11.408 82 3.5 80 9.3
2005-06-15 12:21:03 51°27.809 3°11.499 92.3 3.1 90 9.2
2005-06-15 12:22:03 51°27.803 3°11.566 108.6 2.2 106 9.2
2005-06-15 12:23:03 51°27.79 3°11.612 120.8 1.7 119 9.2
2005-06-15 12:24:03 51°27.765 3°11.651 151.4 3 156 9.1
2005-06-15 12:25:03 51°27.704 3°11.639 201.2 4.3 200 9
2005-06-15 12:26:02 51°27.648 3°11.567 229.1 4.2 227 9
2005-06-15 12:27:02 51°27.607 3°11.478 238.7 4.2 235 9
2005-06-15 12:28:02 51°27.571 3°11.384 240.7 4.1 240 9.1
2005-06-15 12:29:03 51°27.539 3°11.288 244.1 4 242 9.2
2005-06-15 12:30:02 51°27.506 3°11.198 239.5 3.9 238 9.4
2005-06-15 12:31:02 51°27.471 3°11.115 237.7 3.6 237 9.4
2005-06-15 12:32:02 51°27.443 3°11.045 239.9 2.9 240 9.4
2005-06-15 12:33:02 51°27.419 3°10.984 239.9 2.6 239 9.6
2005-06-15 12:34:02 51°27.395 3°10.922 239.2 2.9 238 9.6
2005-06-15 12:35:03 51°27.367 3°10.856 237.7 3 237 9.6
2005-06-15 12:36:03 51°27.34 3°10.789 239.9 2.9 234 9.7
2005-06-15 12:37:02 51°27.315 3°10.725 238.7 2.9 238 9.8
2005-06-15 12:38:02 51°27.288 3°10.661 237.2 2.9 234 9.6
2005-06-15 12:39:02 51°27.262 3°10.6 239 2.7 239 9.7
2005-06-15 12:40:03 51°27.237 3°10.537 238.2 2.8 238 9.7
2005-06-15 12:41:02 51°27.211 3°10.473 238.5 3 238 9.8
2005-06-15 12:42:03 51°27.183 3°10.406 238 3 238 9.9
2005-06-15 12:43:02 51°27.155 3°10.341 238.3 3 237 10
2005-06-15 12:44:02 51°27.128 3°10.275 239.1 3 237 10.1
2005-06-15 12:45:03 51°27.1 3°10.208 238.6 3 235 10.1
2005-06-15 12:46:02 51°27.074 3°10.144 238.8 2.9 234 10
2005-06-15 12:47:03 51°27.045 3°10.077 237.9 3 239 10
2005-06-15 12:48:03 51°27.014 3°10.012 237.2 3.1 237 10
2005-06-15 12:49:01 51°26.984 3°9.946 238.1 3.2 234 10
2005-06-15 12:50:02 51°26.954 3°9.876 238.7 3.1 236 9.9
2005-06-15 12:51:03 51°26.923 3°9.808 237.3 3.1 235 9.9
2005-06-15 12:52:02 51°26.894 3°9.741 239.4 3 237 10
2005-06-15 12:53:02 51°26.868 3°9.679 240.2 2.7 235 10
2005-06-15 12:54:02 51°26.844 3°9.622 239.1 2.6 236 10
2005-06-15 12:55:02 51°26.82 3°9.566 239 2.5 240 10.1
2005-06-15 12:56:02 51°26.795 3°9.509 237.7 2.9 236 10
2005-06-15 12:57:03 51°26.765 3°9.439 240 3.2 234 10
2005-06-15 12:58:02 51°26.741 3°9.36 253.9 3.4 251 10
2005-06-15 12:59:02 51°26.731 3°9.27 268.1 3.4 264 10.1
2005-06-15 13:00:02 51°26.732 3°9.178 282.3 3.4 275 10.3
2005-06-15 13:01:03 51°26.741 3°9.111 289.7 2.2 283 10.4
2005-06-15 13:02:02 51°26.748 3°9.067 292.2 1.5 286 10.6
2005-06-15 13:03:02 51°26.753 3°9.036 293 1.1 292 10.5
2005-06-15 13:04:02 51°26.757 3°9.013 293.3 0.9 287 10.6
2005-06-15 13:05:02 51°26.76 3°8.993 291 0.9 281 10.7
2005-06-15 13:06:02 51°26.763 3°8.965 283.1 1.2 277 10.7
2005-06-15 13:07:02 51°26.763 3°8.926 272.4 1.5 269 10.9
2005-06-15 13:08:02 51°26.76 3°8.884 263.9 1.6 258 10.9
2005-06-15 13:09:02 51°26.754 3°8.843 256.4 1.6 253 11
2005-06-15 13:10:02 51°26.744 3°8.802 248.5 1.7 247 11
2005-06-15 13:11:02 51°26.732 3°8.762 243.2 1.6 246 11.2
2005-06-15 13:12:03 51°26.718 3°8.726 236.1 1.5 231 11.2
2005-06-15 13:13:02 51°26.704 3°8.695 228.3 1.4 233 11.1
2005-06-15 13:14:03 51°26.688 3°8.67 222.7 1.3 228 11.1
2005-06-15 13:15:02 51°26.676 3°8.652 225.7 0.8 226 11.1
2005-06-15 13:16:02 51°26.673 3°8.641 242.3 0.3 271 11.2
2005-06-15 13:17:03 51°26.674 3°8.636 267.2 0.2 315 11.2
2005-06-15 13:18:02 51°26.674 3°8.633 288.8 0.2 345 11.2
2005-06-15 13:19:03 51°26.675 3°8.551 267.5 6 263 11.4
2005-06-15 13:20:02 51°26.578 3°8.34 232.6 12.5 229 10.6
2005-06-15 13:21:02 51°26.423 3°8.084 222.3 13.8 219 9.7
2005-06-15 13:22:02 51°26.239 3°7.861 219.1 13.7 217 8.8
2005-06-15 13:23:02 51°26.056 3°7.639 220.6 13.9 219 8.4
2005-06-15 13:24:02 51°25.87 3°7.405 219.7 14.2 217 9
2005-06-15 13:25:02 51°25.684 3°7.17 220.8 14.1 217 9.5
2005-06-15 13:26:02 51°25.5 3°6.935 221.3 14.3 219 9.6
2005-06-15 13:27:02 51°25.317 3°6.701 220.9 14.2 219 9.7
2005-06-15 13:28:03 51°25.134 3°6.467 221.2 14.1 218 9.9
2005-06-15 13:29:03 51°24.949 3°6.235 220.6 14.1 218 10.8
2005-06-15 13:30:03 51°24.768 3°6.006 221.2 13.8 218 11.7
2005-06-15 13:31:02 51°24.59 3°5.778 221.3 13.8 218 12.1
2005-06-15 13:32:02 51°24.411 3°5.548 220.7 13.9 218 12.7
2005-06-15 13:33:02 51°24.235 3°5.313 221.7 13.8 221 17.7
2005-06-15 13:34:03 51°24.059 3°5.074 221.2 13.8 221 18
2005-06-15 13:35:02 51°23.885 3°4.838 221.5 14 222 13.7
2005-06-15 13:36:02 51°23.71 3°4.594 221.6 14 221 12.4
2005-06-15 13:37:02 51°23.533 3°4.353 220.8 14 220 12.6
2005-06-15 13:38:02 51°23.355 3°4.114 220.2 13.8 219 11.3
2005-06-15 13:39:02 51°23.177 3°3.875 220.7 14 219 12
2005-06-15 13:40:03 51°22.997 3°3.633 220.8 14 220 11.7
2005-06-15 13:41:02 51°22.833 3°3.374 228.9 13.9 228 11.5
2005-06-15 13:42:02 51°22.679 3°3.097 231.8 13.9 231 9.9
2005-06-15 13:43:02 51°22.529 3°2.811 233.2 13.9 231 11
2005-06-15 13:44:03 51°22.385 3°2.512 236.2 14 234 11.1
2005-06-15 13:45:02 51°22.247 3°2.213 236.6 14 233 11.2
2005-06-15 13:46:02 51°22.107 3°1.914 235.1 13.9 232 11
2005-06-15 13:47:03 51°21.963 3°1.616 234.5 14 232 11.2
2005-06-15 13:48:03 51°21.818 3°1.322 233.7 14 232 11.1
2005-06-15 13:49:02 51°21.676 3°1.028 234.5 14.1 233 11.2
2005-06-15 13:50:02 51°21.532 3°0.732 234.4 14.1 231 11.2
2005-06-15 13:51:03 51°21.388 3°0.432 234.6 14.1 232 11.1
2005-06-15 13:52:02 51°21.245 3°0.137 234.2 14.2 233 11.1
2005-06-15 13:53:02 51°21.1 2°59.839 234.2 14.1 230 11.1
2005-06-15 13:54:02 51°20.943 2°59.558 229.4 14.2 228 11.1
2005-06-15 13:55:02 51°20.787 2°59.278 230 14.1 229 11
2005-06-15 13:56:03 51°20.63 2°58.995 230.3 14.2 228 11
2005-06-15 13:57:02 51°20.474 2°58.715 229.4 14.1 229 11
2005-06-15 13:58:03 51°20.316 2°58.431 229.8 14.2 228 10.9
2005-06-15 13:59:03 51°20.16 2°58.148 229.3 14.1 229 10.8
2005-06-15 14:00:02 51°20.004 2°57.867 230.6 14.2 229 10.8
2005-06-15 14:01:02 51°19.848 2°57.583 230.2 14.2 229 10.6
2005-06-15 14:02:03 51°19.689 2°57.296 229.3 14.3 228 10.5
2005-06-15 14:03:03 51°19.532 2°57.01 230 14.3 230 10.4
2005-06-15 14:04:03 51°19.374 2°56.725 230.4 14.3 229 10.3
2005-06-15 14:05:03 51°19.216 2°56.439 230.2 14.2 228 10.2
2005-06-15 14:06:03 51°19.061 2°56.157 230.7 14.2 229 10.3
2005-06-15 14:07:02 51°18.905 2°55.877 230.3 14.2 228 10.2
2005-06-15 14:08:02 51°18.749 2°55.595 230.3 14.1 229 10.3
2005-06-15 14:09:02 51°18.586 2°55.325 226.1 14.1 225 10.1
2005-06-15 14:10:03 51°18.416 2°55.058 225.9 14 224 9.9
2005-06-15 14:11:02 51°18.251 2°54.799 226.1 14.1 224 9.7
2005-06-15 14:12:03 51°18.083 2°54.535 225.8 14.1 224 9.4
2005-06-15 14:13:03 51°17.912 2°54.281 223 14 222 9.3
2005-06-15 14:14:03 51°17.731 2°54.041 221.7 14 220 9
2005-06-15 14:15:02 51°17.551 2°53.816 218.8 14 217 8.8
2005-06-15 14:16:02 51°17.367 2°53.595 218.5 13.9 217 8.7
2005-06-15 14:17:02 51°17.178 2°53.378 216.3 13.9 214 8.3
2005-06-15 14:18:02 51°16.967 2°53.259 190 13.5 186 8.1
2005-06-15 14:19:03 51°16.736 2°53.285 171.4 13.9 171 11.2
2005-06-15 14:20:03 51°16.51 2°53.324 173.1 13.6 174 11.9
2005-06-15 14:21:03 51°16.29 2°53.366 170.8 13.2 172 11.8
2005-06-15 14:22:02 51°16.078 2°53.45 161.1 13.1 163 11.6
2005-06-15 14:23:02 51°15.871 2°53.568 158.5 13.3 161 11.2
2005-06-15 14:24:03 51°15.662 2°53.697 156.2 13.5 158 10.8
2005-06-15 14:25:02 51°15.461 2°53.827 156.6 13 158 10.2
2005-06-15 14:26:02 51°15.267 2°53.984 150.1 13 151 9.5
2005-06-15 14:27:02 51°15.077 2°54.15 150 13.1 151 8.8
2005-06-15 14:28:02 51°14.886 2°54.321 146.9 13.5 150 9.1
2005-06-15 14:29:02 51°14.706 2°54.518 141.7 13.2 142 9.8
2005-06-15 14:30:02 51°14.546 2°54.751 133.1 12.8 131 10
2005-06-15 14:31:02 51°14.4 2°54.997 133 12.2 131 10.4
2005-06-15 14:32:03 51°14.302 2°55.19 133.5 7.8 130 10.4
2005-06-15 14:33:02 51°14.233 2°55.305 137.6 6.1 134 11.1
2005-06-15 14:34:03 51°14.151 2°55.416 143.5 6.5 140 11.2
2005-06-15 14:35:03 51°14.059 2°55.517 149.6 7.2 149 10
2005-06-15 14:36:02 51°13.936 2°55.596 169.3 8.5 167 10.7
2005-06-15 14:37:02 51°13.797 2°55.66 157.7 8 154 10.4
2005-06-15 14:38:02 51°13.724 2°55.767 130.5 5.1 129 11.6
2005-06-15 14:39:02 51°13.683 2°55.865 128.1 4.3 123 9.2
2005-06-15 14:40:02 51°13.64 2°55.959 127.7 4.2 126 9.6
2005-06-15 14:41:03 51°13.61 2°56.044 117.5 3.6 112 9.3
2005-06-15 14:42:03 51°13.6 2°56.097 105.8 0.6 105 6.9
2005-06-15 14:43:03 51°13.597 2°56.107 113.3 0.4 114 6.8